Time;durP1;ratioP1;P1;durP2;ratioP2;P2;SDS_P1;SDS_P2;PMS_P1;PMS_P2;Temp;Humidity;BMP_temperature;BMP_pressure;BME280_temperature;BME280_humidity;BME280_pressure;Samples;Min_cycle;Max_cycle;Signal;HPM_P1;HPM_P2
2022/03/04 05:02:59;;;;;;;36.90;17.38;;;-4.30;99.90;;;;;;4898341;28;94559;-76
2022/03/04 05:05:24;;;;;;;33.15;16.85;;;-4.40;99.90;;;;;;4882329;28;94517;-76
2022/03/04 05:07:50;;;;;;;35.38;16.83;;;-4.30;99.90;;;;;;4898240;28;98031;-76
2022/03/04 05:10:15;;;;;;;34.88;17.42;;;-4.40;99.90;;;;;;4899308;28;94478;-77
2022/03/04 05:12:41;;;;;;;33.90;16.77;;;-4.40;99.90;;;;;;4899847;28;94418;-77
2022/03/04 05:15:08;;;;;;;32.05;16.95;;;-4.40;99.90;;;;;;4883338;28;93748;-76
2022/03/04 05:17:34;;;;;;;33.55;18.33;;;-4.50;99.90;;;;;;4882404;28;95549;-77
2022/03/04 05:19:59;;;;;;;43.60;18.27;;;-4.50;99.90;;;;;;4897688;28;97254;-76
2022/03/04 05:22:25;;;;;;;39.08;16.73;;;-4.50;99.90;;;;;;4899016;28;96787;-76
2022/03/04 05:24:51;;;;;;;34.75;18.00;;;-4.60;99.90;;;;;;4899547;28;94543;-76
2022/03/04 05:27:16;;;;;;;33.55;17.35;;;-4.50;99.90;;;;;;4897618;28;96985;-76
2022/03/04 05:29:42;;;;;;;32.13;16.98;;;-4.60;99.90;;;;;;4899129;28;94962;-76
2022/03/04 05:32:08;;;;;;;36.55;16.45;;;-4.60;99.90;;;;;;4898262;28;94494;-77
2022/03/04 05:34:34;;;;;;;30.30;16.48;;;-4.60;99.90;;;;;;4899364;28;94467;-76
2022/03/04 05:36:59;;;;;;;33.75;17.77;;;-4.60;99.90;;;;;;4899297;28;95587;-76
2022/03/04 05:39:25;;;;;;;35.65;17.15;;;-4.70;99.90;;;;;;4899311;28;93682;-76
2022/03/04 05:41:51;;;;;;;37.60;17.73;;;-4.70;99.90;;;;;;4898979;28;94425;-76
2022/03/04 05:44:16;;;;;;;37.33;18.20;;;-4.70;99.90;;;;;;4899621;28;94625;-76
2022/03/04 05:46:47;;;;;;;37.20;17.08;;;-4.70;99.90;;;;;;4898466;28;98293;-76
2022/03/04 05:49:13;;;;;;;37.47;18.38;;;-4.70;99.90;;;;;;4899203;28;94657;-77
2022/03/04 05:51:38;;;;;;;37.33;17.77;;;-4.60;99.90;;;;;;4899053;28;94428;-77
2022/03/04 05:54:04;;;;;;;41.33;20.33;;;-4.60;99.90;;;;;;4899406;28;94432;-76
2022/03/04 05:56:29;;;;;;;38.40;18.63;;;-4.70;99.90;;;;;;4898803;28;94952;-77
2022/03/04 05:58:56;;;;;;;43.25;20.48;;;-4.70;99.90;;;;;;4898655;28;95391;-76
2022/03/04 06:01:22;;;;;;;40.90;20.23;;;-4.70;99.90;;;;;;4898232;28;94401;-76
2022/03/04 06:03:48;;;;;;;39.97;19.98;;;-4.70;99.90;;;;;;4899180;28;93834;-77
2022/03/04 06:06:14;;;;;;;37.58;19.13;;;-4.60;99.90;;;;;;4898363;28;96605;-76
2022/03/04 06:08:40;;;;;;;44.90;21.08;;;-4.60;99.90;;;;;;4898559;28;95036;-76
2022/03/04 06:11:08;;;;;;;39.60;19.33;;;-4.60;99.90;;;;;;4898041;28;95592;-76
2022/03/04 06:13:34;;;;;;;44.38;20.73;;;-4.60;99.90;;;;;;4898721;28;94465;-76
2022/03/04 06:16:00;;;;;;;40.92;20.17;;;-4.60;99.90;;;;;;4898491;28;95242;-76
2022/03/04 06:18:26;;;;;;;42.75;21.45;;;-4.50;99.90;;;;;;4898442;28;94519;-77
2022/03/04 06:20:52;;;;;;;42.45;21.58;;;-4.50;99.90;;;;;;4897064;28;94853;-76
2022/03/04 06:23:17;;;;;;;45.17;21.05;;;-4.40;99.90;;;;;;4898330;28;94369;-77
2022/03/04 06:25:43;;;;;;;44.88;22.42;;;-4.30;99.90;;;;;;4898562;28;95225;-76
2022/03/04 06:28:09;;;;;;;44.50;21.58;;;-4.30;99.90;;;;;;4898487;28;96627;-76
2022/03/04 06:30:36;;;;;;;47.25;21.13;;;-4.20;99.90;;;;;;4896633;28;94494;-77
2022/03/04 06:33:47;;;;;;;41.85;20.95;;;-4.20;99.90;;;;;;4898497;28;94745;-76
2022/03/04 06:35:53;;;;;;;41.70;21.40;;;-4.20;99.90;;;;;;4891279;28;95886;-77
2022/03/04 06:38:19;;;;;;;43.60;22.30;;;-4.10;99.90;;;;;;4880764;28;98127;-76
2022/03/04 06:40:45;;;;;;;45.85;22.50;;;-4.10;99.90;;;;;;4898191;28;94403;-76
2022/03/04 06:43:11;;;;;;;51.22;23.25;;;-4.10;99.90;;;;;;4897673;28;94508;-76
2022/03/04 06:45:39;;;;;;;52.40;24.23;;;-3.90;99.90;;;;;;4898380;28;94463;-76
2022/03/04 06:48:05;;;;;;;47.10;24.15;;;-3.80;99.90;;;;;;4896488;28;94606;-77
2022/03/04 06:50:31;;;;;;;47.88;24.30;;;-3.80;99.90;;;;;;4905788;28;94496;-76
2022/03/04 06:52:56;;;;;;;46.83;25.13;;;-3.70;99.90;;;;;;4918183;28;93877;-75
2022/03/04 06:55:22;;;;;;;50.75;25.38;;;-3.60;99.90;;;;;;4915605;28;97751;-77
2022/03/04 06:57:50;;;;;;;52.88;25.55;;;-3.60;99.90;;;;;;4917262;28;95441;-79
2022/03/04 07:00:19;;;;;;;52.80;26.52;;;-3.60;99.90;;;;;;4916076;28;95485;-77
2022/03/04 07:02:45;;;;;;;57.47;27.23;;;-3.50;99.90;;;;;;4916790;28;94508;-77
2022/03/04 07:05:10;;;;;;;55.83;26.67;;;-3.40;99.90;;;;;;4916561;28;95581;-77
2022/03/04 07:07:36;;;;;;;52.78;24.67;;;-3.40;99.90;;;;;;4916038;28;98002;-76
2022/03/04 07:10:03;;;;;;;56.08;25.90;;;-3.30;99.90;;;;;;4909939;28;94562;-76
2022/03/04 07:12:29;;;;;;;57.83;26.15;;;-3.20;99.90;;;;;;4895712;28;94660;-76
2022/03/04 07:14:55;;;;;;;51.42;25.38;;;-3.20;99.90;;;;;;4897425;28;95175;-76
2022/03/04 07:17:21;;;;;;;47.83;24.90;;;-3.10;99.90;;;;;;4896558;28;97608;-77
2022/03/04 07:19:46;;;;;;;51.05;23.98;;;-3.00;99.90;;;;;;4877052;28;94782;-77
2022/03/04 07:22:12;;;;;;;47.53;23.98;;;-2.90;99.90;;;;;;4878242;28;94591;-78
2022/03/04 07:24:37;;;;;;;53.70;25.02;;;-2.80;99.90;;;;;;4882832;28;96619;-76
2022/03/04 07:27:03;;;;;;;48.35;24.20;;;-2.70;99.90;;;;;;4897252;28;96268;-76
2022/03/04 07:29:29;;;;;;;45.90;24.58;;;-2.50;99.90;;;;;;4897724;28;94786;-77
2022/03/04 07:31:55;;;;;;;47.00;24.88;;;-2.40;99.90;;;;;;4897085;28;94497;-76
2022/03/04 07:34:23;;;;;;;50.83;25.45;;;-2.30;99.90;;;;;;4894572;28;95263;-78
2022/03/04 07:36:49;;;;;;;48.10;25.65;;;-2.20;99.90;;;;;;4886454;28;95353;-77
2022/03/04 07:39:14;;;;;;;44.78;25.45;;;-2.10;99.90;;;;;;4877473;28;94807;-77
2022/03/04 07:41:40;;;;;;;48.67;26.40;;;-2.00;99.90;;;;;;4895826;28;93762;-76
2022/03/04 07:44:06;;;;;;;47.58;25.70;;;-1.90;99.90;;;;;;4894851;28;94464;-77
2022/03/04 07:46:32;;;;;;;51.67;25.23;;;-1.70;99.90;;;;;;4895504;28;95167;-77
2022/03/04 07:48:57;;;;;;;50.92;25.67;;;-1.60;99.90;;;;;;4896597;28;95400;-77
2022/03/04 07:51:23;;;;;;;46.20;24.70;;;-1.50;99.90;;;;;;4896171;28;94550;-77
2022/03/04 07:53:48;;;;;;;43.35;24.50;;;-1.40;99.90;;;;;;4875652;28;97820;-76
2022/03/04 07:56:14;;;;;;;49.28;25.45;;;-1.30;99.90;;;;;;4883024;28;95175;-76
2022/03/04 07:58:40;;;;;;;49.38;25.10;;;-1.10;99.90;;;;;;4895641;28;94621;-77
2022/03/04 08:01:05;;;;;;;48.20;24.50;;;-0.90;99.90;;;;;;4889894;28;95669;-77
2022/03/04 08:03:31;;;;;;;43.30;23.77;;;-0.70;99.90;;;;;;4883831;28;95453;-78
2022/03/04 08:05:57;;;;;;;45.53;23.30;;;-0.40;99.90;;;;;;4890249;28;96434;-77
2022/03/04 08:08:22;;;;;;;40.95;23.25;;;-0.10;99.90;;;;;;4884000;28;94789;-78
2022/03/04 08:10:48;;;;;;;43.72;23.65;;;0.00;99.90;;;;;;4896487;28;94511;-78
2022/03/04 08:13:13;;;;;;;40.53;22.63;;;0.20;99.90;;;;;;4895984;28;96053;-77
2022/03/04 08:15:39;;;;;;;41.40;23.05;;;0.40;99.90;;;;;;4895258;28;96142;-77
2022/03/04 08:18:04;;;;;;;39.78;22.27;;;0.60;99.90;;;;;;4894607;28;94464;-78
2022/03/04 08:20:31;;;;;;;40.17;22.30;;;0.70;99.90;;;;;;4895579;28;94548;-77
2022/03/04 08:22:58;;;;;;;43.20;23.48;;;0.90;99.90;;;;;;4885401;28;94543;-78
2022/03/04 08:25:23;;;;;;;46.90;23.42;;;1.00;99.90;;;;;;4890254;28;95134;-78
2022/03/04 08:27:50;;;;;;;42.42;22.55;;;1.20;99.90;;;;;;4877460;28;94463;-77
2022/03/04 08:30:16;;;;;;;43.47;23.65;;;1.40;99.90;;;;;;4895282;28;93886;-78
2022/03/04 08:32:42;;;;;;;39.85;23.15;;;1.50;99.90;;;;;;4895803;28;94499;-77
2022/03/04 08:35:08;;;;;;;41.17;22.70;;;1.60;99.90;;;;;;4894419;28;94952;-77
2022/03/04 08:37:34;;;;;;;39.00;22.50;;;1.70;99.90;;;;;;4894225;28;95521;-77
2022/03/04 08:40:00;;;;;;;41.40;23.05;;;1.80;99.90;;;;;;4895649;28;94733;-77
2022/03/04 08:42:26;;;;;;;41.97;22.85;;;1.90;99.90;;;;;;4895977;28;94436;-78
2022/03/04 08:44:54;;;;;;;39.47;22.58;;;2.00;99.90;;;;;;4883181;28;95057;-77
2022/03/04 08:47:21;;;;;;;42.42;23.77;;;2.20;99.90;;;;;;4891249;28;94541;-78
2022/03/04 08:49:46;;;;;;;42.50;23.35;;;2.20;99.90;;;;;;4874922;28;94588;-77
2022/03/04 08:52:12;;;;;;;39.97;23.23;;;2.40;99.90;;;;;;4877332;28;95814;-78
2022/03/04 08:54:37;;;;;;;42.05;23.30;;;2.40;99.90;;;;;;4888519;28;95397;-79
2022/03/04 08:57:04;;;;;;;39.25;21.67;;;2.50;99.90;;;;;;4888462;28;94605;-78
2022/03/04 08:59:30;;;;;;;39.80;22.92;;;2.60;99.90;;;;;;4889693;28;94733;-78
2022/03/04 09:01:56;;;;;;;39.67;23.15;;;2.70;99.90;;;;;;4885868;28;96229;-78
2022/03/04 09:04:22;;;;;;;42.33;23.13;;;2.80;99.90;;;;;;4888869;28;99257;-80
2022/03/04 09:06:47;;;;;;;37.42;22.98;;;2.90;99.90;;;;;;4894970;28;95118;-78
2022/03/04 09:09:13;;;;;;;40.33;24.27;;;3.00;99.90;;;;;;4886234;28;95183;-80
2022/03/04 09:11:39;;;;;;;40.63;23.30;;;3.10;99.90;;;;;;4894043;28;95629;-80
2022/03/04 09:14:04;;;;;;;40.50;23.65;;;3.20;99.90;;;;;;4897840;28;96034;-78
2022/03/04 09:16:30;;;;;;;43.70;22.55;;;3.30;99.90;;;;;;4899594;28;94479;-77
2022/03/04 09:18:56;;;;;;;41.50;23.17;;;3.40;99.90;;;;;;4899755;28;93646;-78
2022/03/04 09:21:22;;;;;;;38.97;23.67;;;3.50;99.90;;;;;;4899115;28;95447;-77
2022/03/04 09:23:47;;;;;;;44.13;22.77;;;3.70;99.90;;;;;;4885961;28;94744;-79
2022/03/04 09:26:13;;;;;;;39.13;22.95;;;3.70;99.90;;;;;;4880040;28;95459;-77
2022/03/04 09:28:39;;;;;;;41.33;23.55;;;3.90;99.90;;;;;;4895772;28;94391;-77
2022/03/04 09:31:04;;;;;;;37.10;23.23;;;4.00;99.90;;;;;;4904030;28;97483;-77
2022/03/04 09:33:30;;;;;;;37.05;21.85;;;4.10;99.90;;;;;;4897547;28;97634;-77
2022/03/04 09:35:55;;;;;;;39.15;22.33;;;4.20;99.90;;;;;;4889115;28;94793;-78
2022/03/04 09:38:21;;;;;;;40.63;23.73;;;4.30;99.90;;;;;;4898449;28;94529;-79
2022/03/04 09:40:50;;;;;;;41.13;22.52;;;4.40;99.90;;;;;;4897659;28;97978;-79
2022/03/04 09:43:19;;;;;;;41.08;22.92;;;4.50;99.90;;;;;;4899620;28;98157;-79
2022/03/04 09:45:46;;;;;;;41.90;23.60;;;4.60;99.90;;;;;;4893094;28;94485;-79
2022/03/04 09:48:12;;;;;;;37.83;22.65;;;4.70;99.90;;;;;;4900636;28;94518;-80
2022/03/04 09:50:38;;;;;;;37.45;21.10;;;4.80;99.90;;;;;;4898340;28;99462;-79
2022/03/04 09:53:09;;;;;;;38.35;22.17;;;4.90;99.90;;;;;;4901647;28;96286;-79
2022/03/04 09:55:36;;;;;;;41.85;22.73;;;5.10;99.80;;;;;;4885035;28;94504;-79
2022/03/04 09:58:02;;;;;;;36.85;21.77;;;5.20;99.70;;;;;;4881959;28;94849;-79
2022/03/04 10:00:28;;;;;;;38.15;22.60;;;5.30;99.00;;;;;;4880930;28;95723;-79
2022/03/04 10:02:54;;;;;;;40.28;22.77;;;5.40;99.00;;;;;;4891023;28;95477;-80
2022/03/04 10:05:19;;;;;;;38.72;22.85;;;5.40;98.60;;;;;;4865365;28;94580;-79
2022/03/04 10:07:47;;;;;;;34.63;20.85;;;5.40;98.40;;;;;;4880855;28;94151;-79
2022/03/04 10:10:17;;;;;;;37.13;21.90;;;5.50;98.50;;;;;;4883750;28;95560;-80
2022/03/04 10:12:57;;;;;;;38.80;22.52;;;5.60;97.80;;;;;;4887793;28;94828;-79
2022/03/04 10:15:24;;;;;;;40.88;22.20;;;5.60;97.10;;;;;;4881520;28;95740;-79
2022/03/04 10:17:58;;;;;;;43.72;22.98;;;5.70;97.50;;;;;;4882821;28;94572;-79
2022/03/04 10:20:32;;;;;;;34.55;21.00;;;5.70;96.40;;;;;;4883520;28;94423;-79
2022/03/04 10:23:12;;;;;;;37.38;20.95;;;5.90;96.30;;;;;;4916170;28;94494;-79
2022/03/04 10:25:42;;;;;;;36.50;21.02;;;5.90;95.50;;;;;;4883409;28;94537;-80
2022/03/04 10:28:09;;;;;;;35.08;20.92;;;6.00;95.00;;;;;;4917293;28;94518;-79
2022/03/04 10:30:35;;;;;;;34.97;21.05;;;6.00;95.00;;;;;;4905096;28;94545;-81
2022/03/04 10:33:17;;;;;;;36.75;20.45;;;6.00;94.10;;;;;;4902602;28;93910;-80
2022/03/04 10:35:43;;;;;;;36.25;20.55;;;6.10;94.10;;;;;;4899787;28;94375;-80
2022/03/04 10:38:23;;;;;;;35.42;20.33;;;6.10;93.70;;;;;;4880417;28;94506;-80
2022/03/04 10:40:50;;;;;;;31.17;20.10;;;6.30;93.00;;;;;;4902345;28;97065;-80
2022/03/04 10:43:25;;;;;;;35.45;20.33;;;6.30;93.50;;;;;;4901203;28;95097;-80
2022/03/04 10:46:03;;;;;;;32.67;20.30;;;6.50;93.00;;;;;;4886361;28;94380;-80
2022/03/04 10:48:30;;;;;;;34.53;20.30;;;6.50;91.80;;;;;;4898555;28;94433;-80
2022/03/04 10:50:58;;;;;;;35.80;20.30;;;6.60;92.70;;;;;;4896584;28;97887;-79
2022/03/04 10:53:26;;;;;;;36.90;20.27;;;6.70;91.80;;;;;;4898511;28;94419;-80
2022/03/04 10:55:53;;;;;;;32.30;20.02;;;6.80;91.80;;;;;;4901075;28;94411;-80
2022/03/04 10:58:33;;;;;;;34.58;19.48;;;6.60;91.10;;;;;;4901698;28;93601;-79
2022/03/04 11:01:18;;;;;;;32.72;19.55;;;6.60;91.00;;;;;;4900933;28;94636;-79
2022/03/04 11:03:44;;;;;;;31.40;19.17;;;6.80;90.90;;;;;;4898286;28;96857;-80
2022/03/04 11:06:11;;;;;;;29.83;18.58;;;6.90;91.50;;;;;;4900401;28;95411;-80
2022/03/04 11:08:37;;;;;;;31.25;19.50;;;7.00;90.00;;;;;;4899735;28;94587;-79
2022/03/04 11:11:05;;;;;;;34.05;19.92;;;7.00;89.10;;;;;;4897343;28;96768;-79
2022/03/04 11:13:33;;;;;;;31.85;19.92;;;7.10;90.20;;;;;;4881650;28;95439;-79
2022/03/04 11:16:00;;;;;;;35.70;20.40;;;7.20;91.00;;;;;;4893443;28;94584;-78
2022/03/04 11:18:26;;;;;;;34.90;20.73;;;7.30;91.30;;;;;;4884338;28;94546;-78
2022/03/04 11:20:56;;;;;;;32.70;20.42;;;7.40;91.20;;;;;;4880317;28;94529;-80
2022/03/04 11:23:25;;;;;;;34.88;20.98;;;7.40;91.00;;;;;;4880635;28;94158;-81
2022/03/04 11:26:07;;;;;;;33.88;20.55;;;7.40;89.90;;;;;;4863365;28;94833;-78
2022/03/04 11:28:38;;;;;;;111.72;43.65;;;7.40;90.00;;;;;;4897789;28;94466;-78
2022/03/04 11:31:07;;;;;;;34.60;19.67;;;7.60;90.40;;;;;;4896865;28;96498;-78
2022/03/04 11:33:35;;;;;;;28.70;18.50;;;7.80;88.20;;;;;;4898242;28;95767;-81
2022/03/04 11:36:16;;;;;;;30.88;19.25;;;7.90;89.50;;;;;;4897861;28;94531;-81
2022/03/04 11:38:47;;;;;;;37.90;20.70;;;8.10;88.30;;;;;;4897747;28;94493;-81
2022/03/04 11:41:18;;;;;;;32.30;20.05;;;8.10;87.80;;;;;;4895701;28;98313;-79
2022/03/04 11:43:58;;;;;;;34.00;19.77;;;8.00;85.00;;;;;;4897942;28;94472;-77
2022/03/04 11:46:26;;;;;;;31.27;18.25;;;8.00;85.60;;;;;;4897389;28;94502;-79
2022/03/04 11:49:47;;;;;;;30.63;18.42;;;8.10;85.30;;;;;;4894011;28;93778;-80
2022/03/04 11:52:20;;;;;;;31.35;17.83;;;8.20;82.40;;;;;;4852762;28;97269;-76
2022/03/04 11:54:48;;;;;;;32.42;18.85;;;8.20;85.70;;;;;;4876907;28;98022;-79
2022/03/04 11:57:34;;;;;;;32.35;18.40;;;8.40;83.80;;;;;;4888573;28;95444;-77
2022/03/04 12:00:17;;;;;;;32.58;17.52;;;8.30;82.60;;;;;;4897438;28;94382;-79
2022/03/04 12:02:48;;;;;;;29.85;18.48;;;8.40;82.40;;;;;;4878880;28;125256;-78
2022/03/04 12:05:21;;;;;;;29.83;18.40;;;8.40;81.50;;;;;;4879759;28;97188;-78
2022/03/04 12:07:56;;;;;;;28.70;17.88;;;8.40;80.50;;;;;;4894090;28;94613;-78
2022/03/04 12:10:23;;;;;;;29.13;17.45;;;8.20;81.40;;;;;;4895582;28;94438;-79
2022/03/04 12:13:11;;;;;;;29.98;18.75;;;8.30;81.10;;;;;;4896750;28;95405;-78
2022/03/04 12:15:42;;;;;;;28.20;17.83;;;8.60;81.70;;;;;;4883333;28;94329;-79
2022/03/04 12:18:27;;;;;;;37.40;20.50;;;8.60;80.20;;;;;;4876556;28;94551;-78
2022/03/04 12:20:55;;;;;;;28.95;17.60;;;8.80;83.80;;;;;;4877166;28;94614;-80
2022/03/04 12:23:37;;;;;;;28.73;16.83;;;9.00;78.00;;;;;;4875718;28;97951;-78
2022/03/04 12:26:04;;;;;;;29.23;16.05;;;9.10;77.10;;;;;;4877505;28;95316;-80
2022/03/04 12:28:33;;;;;;;27.25;16.42;;;9.20;74.90;;;;;;4878117;28;94508;-79
2022/03/04 12:31:01;;;;;;;29.23;17.25;;;9.30;74.80;;;;;;4883338;28;94377;-80
2022/03/04 12:33:36;;;;;;;28.38;17.60;;;9.30;75.70;;;;;;4893827;28;95160;-80
2022/03/04 12:36:04;;;;;;;26.98;17.23;;;9.20;75.00;;;;;;4898193;28;95471;-80
2022/03/04 12:38:37;;;;;;;27.67;17.52;;;9.30;76.00;;;;;;4893470;28;94581;-80
2022/03/04 12:41:03;;;;;;;28.30;17.35;;;9.20;76.70;;;;;;4887538;28;93833;-79
2022/03/04 12:43:28;;;;;;;25.85;16.10;;;9.40;76.90;;;;;;4887916;28;95665;-79
2022/03/04 12:45:54;;;;;;;26.88;16.10;;;9.50;74.40;;;;;;4893891;28;97543;-79
2022/03/04 12:48:21;;;;;;;25.48;16.00;;;9.60;74.50;;;;;;4901653;28;95427;-80
2022/03/04 12:50:46;;;;;;;26.48;16.50;;;9.70;74.70;;;;;;4890546;28;94489;-80
2022/03/04 12:53:20;;;;;;;26.00;16.30;;;9.70;75.20;;;;;;4898296;28;95860;-79
2022/03/04 12:55:53;;;;;;;25.90;15.80;;;9.80;73.80;;;;;;4895997;28;94997;-80
2022/03/04 12:58:44;;;;;;;30.00;16.65;;;9.90;75.20;;;;;;4895763;28;94638;-80
2022/03/04 13:01:11;;;;;;;25.83;16.10;;;10.10;73.70;;;;;;4889487;28;94490;-80
2022/03/04 13:03:38;;;;;;;22.45;14.48;;;10.00;71.50;;;;;;4893890;28;95942;-80
2022/03/04 13:06:04;;;;;;;22.83;14.82;;;10.20;70.30;;;;;;4902305;28;95449;-80
2022/03/04 13:08:33;;;;;;;25.90;15.00;;;10.30;69.40;;;;;;4900552;28;94456;-80
2022/03/04 13:11:19;;;;;;;27.27;14.77;;;10.10;70.50;;;;;;4892099;28;94682;-80
2022/03/04 13:13:47;;;;;;;25.48;15.43;;;10.20;70.70;;;;;;4898997;28;96694;-80
2022/03/04 13:16:16;;;;;;;24.65;14.82;;;10.30;68.80;;;;;;4902425;28;96461;-82
2022/03/04 13:18:42;;;;;;;25.85;15.82;;;10.30;68.10;;;;;;4893468;28;94535;-81
2022/03/04 13:21:07;;;;;;;21.92;13.68;;;10.50;68.60;;;;;;4904704;28;94602;-81
2022/03/04 13:23:34;;;;;;;24.25;14.13;;;10.60;67.40;;;;;;4902517;28;98049;-83
2022/03/04 13:26:06;;;;;;;22.85;13.27;;;10.40;66.90;;;;;;4886306;28;95021;-81
2022/03/04 13:28:57;;;;;;;21.88;13.38;;;10.50;68.00;;;;;;4886970;28;94397;-81
2022/03/04 13:31:26;;;;;;;23.17;13.48;;;10.40;66.50;;;;;;4885238;28;93964;-83
2022/03/04 13:34:07;;;;;;;19.83;12.05;;;10.40;65.50;;;;;;4894700;28;94994;-82
2022/03/04 13:36:50;;;;;;;19.48;12.38;;;10.20;64.60;;;;;;4904940;28;94505;-82
2022/03/04 13:39:28;;;;;;;17.95;11.98;;;10.20;66.20;;;;;;4883893;28;95696;-82
2022/03/04 13:42:17;;;;;;;22.13;13.38;;;10.00;65.30;;;;;;4891983;28;94526;-81
2022/03/04 13:44:54;;;;;;;22.10;12.18;;;10.10;67.70;;;;;;4898837;28;94392;-81
2022/03/04 13:47:32;;;;;;;21.15;13.20;;;10.00;66.10;;;;;;4905581;28;97064;-81
2022/03/04 13:49:59;;;;;;;18.85;12.02;;;9.80;65.80;;;;;;4898454;28;94580;-80
2022/03/04 13:52:25;;;;;;;21.23;13.00;;;9.70;67.10;;;;;;4910061;28;94390;-79
2022/03/04 13:54:58;;;;;;;17.60;11.23;;;9.70;65.40;;;;;;4903644;28;94514;-78
2022/03/04 13:57:34;;;;;;;19.95;11.43;;;9.70;65.50;;;;;;4901925;28;95328;-79
2022/03/04 14:00:19;;;;;;;18.10;11.52;;;9.60;64.90;;;;;;4878283;28;94422;-79
2022/03/04 14:02:50;;;;;;;18.65;11.90;;;9.60;67.40;;;;;;4907803;28;94665;-79
2022/03/04 14:05:30;;;;;;;21.63;12.18;;;9.50;65.10;;;;;;4915923;28;95817;-81
2022/03/04 14:08:10;;;;;;;20.42;11.77;;;9.70;66.60;;;;;;4915623;28;98058;-81
2022/03/04 14:10:37;;;;;;;17.25;10.77;;;9.70;65.60;;;;;;4919506;28;94371;-80
2022/03/04 14:13:04;;;;;;;17.40;10.48;;;9.80;64.90;;;;;;4925523;28;94636;-82
2022/03/04 14:15:37;;;;;;;19.08;10.05;;;9.70;64.40;;;;;;4892933;28;97315;-82
2022/03/04 14:18:05;;;;;;;14.55;9.70;;;9.90;62.80;;;;;;4901258;28;95017;-82
2022/03/04 14:20:31;;;;;;;14.63;9.45;;;9.90;62.50;;;;;;4900486;28;94476;-82
2022/03/04 14:22:57;;;;;;;14.52;9.30;;;9.90;62.50;;;;;;4901484;28;93814;-82
2022/03/04 14:25:24;;;;;;;18.77;10.57;;;9.90;62.50;;;;;;4883715;28;96754;-80
2022/03/04 14:27:52;;;;;;;15.60;9.55;;;9.90;61.60;;;;;;4897984;28;100326;-82
2022/03/04 14:30:23;;;;;;;18.90;10.55;;;9.90;64.20;;;;;;4882975;28;95492;-82
2022/03/04 14:32:50;;;;;;;18.65;12.07;;;9.90;67.00;;;;;;4899623;28;94458;-83
2022/03/04 14:35:21;;;;;;;17.98;11.10;;;10.00;64.60;;;;;;4901235;28;97152;-81
2022/03/04 14:37:46;;;;;;;16.85;11.50;;;10.00;66.10;;;;;;4900441;28;95093;-80
2022/03/04 14:40:18;;;;;;;17.92;11.05;;;10.10;66.10;;;;;;4899157;28;94419;-79
2022/03/04 14:42:44;;;;;;;16.73;10.90;;;10.30;65.80;;;;;;4899587;28;94464;-79
2022/03/04 14:45:11;;;;;;;17.13;11.23;;;10.20;65.20;;;;;;4897261;28;97980;-79
2022/03/04 14:47:38;;;;;;;15.80;9.25;;;10.20;64.40;;;;;;4899170;28;95132;-79
2022/03/04 14:50:05;;;;;;;15.60;9.52;;;10.20;63.60;;;;;;4899283;28;94437;-79
2022/03/04 14:52:31;;;;;;;13.05;9.07;;;10.20;64.60;;;;;;4899796;28;94616;-79
2022/03/04 14:54:57;;;;;;;14.13;8.88;;;10.10;63.10;;;;;;4881978;28;98119;-78
2022/03/04 14:57:22;;;;;;;14.93;8.70;;;9.90;64.60;;;;;;4900469;28;95766;-79
2022/03/04 14:59:49;;;;;;;15.63;9.20;;;10.00;65.30;;;;;;4899213;28;94441;-80
2022/03/04 15:02:16;;;;;;;14.88;8.48;;;9.90;64.10;;;;;;4881720;28;94607;-80
2022/03/04 15:04:41;;;;;;;16.02;9.07;;;9.90;65.00;;;;;;4898650;28;95789;-78
2022/03/04 15:07:10;;;;;;;11.20;7.80;;;10.60;65.20;;;;;;4898696;28;95065;-80
2022/03/04 15:09:40;;;;;;;10.27;6.85;;;11.90;60.70;;;;;;4899833;28;94674;-83
2022/03/04 15:12:07;;;;;;;10.57;7.15;;;13.60;57.10;;;;;;4882490;28;93578;-84
2022/03/04 15:14:33;;;;;;;9.77;6.38;;;15.20;52.70;;;;;;4893223;28;99131;-82
2022/03/04 15:17:05;;;;;;;10.45;6.57;;;15.20;50.90;;;;;;4899554;28;95254;-83
2022/03/04 15:19:30;;;;;;;11.98;8.48;;;15.60;50.60;;;;;;4899314;28;95460;-82
2022/03/04 15:21:56;;;;;;;13.77;10.13;;;15.30;51.10;;;;;;4898759;28;94472;-80
2022/03/04 15:24:21;;;;;;;17.08;11.23;;;16.20;52.40;;;;;;4898195;28;94589;-80
2022/03/04 15:26:47;;;;;;;16.48;11.18;;;15.90;52.80;;;;;;4898244;28;95927;-80
2022/03/04 15:29:13;;;;;;;15.27;11.50;;;15.60;53.70;;;;;;4896762;28;94452;-80
2022/03/04 15:31:40;;;;;;;14.68;10.95;;;15.10;54.20;;;;;;4900551;28;94577;-80
2022/03/04 15:34:06;;;;;;;18.83;11.10;;;16.10;54.00;;;;;;4904840;28;95572;-83
2022/03/04 15:36:32;;;;;;;17.58;11.48;;;15.40;52.60;;;;;;4904312;28;98011;-82
2022/03/04 15:38:58;;;;;;;16.60;10.73;;;15.00;54.30;;;;;;4881707;28;94550;-80
2022/03/04 15:41:24;;;;;;;14.90;10.65;;;15.00;55.30;;;;;;4878734;28;94487;-79
2022/03/04 15:43:49;;;;;;;13.82;10.05;;;15.80;53.00;;;;;;4895024;28;95567;-81
2022/03/04 15:46:15;;;;;;;14.55;10.45;;;15.40;52.10;;;;;;4892426;28;96338;-79
2022/03/04 15:48:41;;;;;;;14.45;10.05;;;15.50;53.10;;;;;;4889501;28;95778;-79
2022/03/04 15:51:06;;;;;;;13.93;10.43;;;15.60;51.90;;;;;;4887811;28;94479;-82
2022/03/04 15:53:32;;;;;;;13.70;10.20;;;15.70;52.00;;;;;;4885138;28;96792;-82
2022/03/04 15:55:59;;;;;;;11.63;9.63;;;15.50;52.60;;;;;;4897520;28;95050;-78
2022/03/04 15:58:24;;;;;;;12.80;9.32;;;14.80;52.70;;;;;;4896951;28;94571;-82
2022/03/04 16:00:50;;;;;;;14.10;9.98;;;14.10;53.60;;;;;;4897558;28;93742;-80
2022/03/04 16:03:17;;;;;;;13.10;9.77;;;13.20;55.80;;;;;;4913075;28;95645;-78
2022/03/04 16:05:43;;;;;;;15.00;9.63;;;13.10;56.30;;;;;;4907353;28;97164;-77
2022/03/04 16:08:08;;;;;;;13.02;9.50;;;12.70;57.40;;;;;;4909912;28;95524;-82
2022/03/04 16:10:34;;;;;;;13.18;9.35;;;12.40;57.00;;;;;;4887231;28;94577;-80
2022/03/04 16:13:00;;;;;;;13.40;8.93;;;11.20;58.70;;;;;;4900416;28;95298;-80
2022/03/04 16:15:25;;;;;;;12.65;9.10;;;10.40;61.20;;;;;;4896044;28;94557;-80
2022/03/04 16:17:51;;;;;;;12.52;8.63;;;10.10;62.40;;;;;;4898583;28;94930;-80
2022/03/04 16:20:16;;;;;;;12.85;9.00;;;10.30;63.20;;;;;;4896249;28;94539;-79
2022/03/04 16:22:42;;;;;;;14.07;9.02;;;10.50;62.50;;;;;;4891765;28;98087;-79
2022/03/04 16:25:09;;;;;;;13.27;8.15;;;10.60;62.30;;;;;;4878450;28;94216;-78
2022/03/04 16:27:35;;;;;;;13.20;9.10;;;10.80;61.90;;;;;;4879282;28;94352;-80
2022/03/04 16:30:00;;;;;;;15.35;9.45;;;11.00;62.50;;;;;;4879291;28;94557;-80
2022/03/04 16:32:27;;;;;;;14.07;8.50;;;10.60;62.10;;;;;;4877930;28;95776;-78
2022/03/04 16:34:53;;;;;;;13.38;8.40;;;10.40;62.00;;;;;;4878837;28;94838;-77
2022/03/04 16:37:19;;;;;;;17.13;8.60;;;9.50;63.30;;;;;;4878916;28;94488;-79
2022/03/04 16:39:45;;;;;;;12.07;8.18;;;8.70;65.30;;;;;;4878712;28;94533;-79
2022/03/04 16:42:10;;;;;;;14.52;8.27;;;8.00;67.10;;;;;;4877996;28;94772;-79
2022/03/04 16:44:36;;;;;;;12.70;7.80;;;7.50;69.20;;;;;;4877002;28;98121;-76
2022/03/04 16:47:04;;;;;;;15.45;8.43;;;7.20;70.80;;;;;;4878741;28;94467;-77
2022/03/04 16:49:32;;;;;;;14.38;7.65;;;6.90;71.30;;;;;;4878547;28;93763;-81
2022/03/04 16:51:58;;;;;;;14.38;7.13;;;6.60;72.30;;;;;;4876735;28;97393;-76
2022/03/04 16:54:24;;;;;;;14.20;6.82;;;6.40;72.70;;;;;;4877914;28;94495;-76
2022/03/04 16:56:49;;;;;;;12.65;7.15;;;6.30;73.70;;;;;;4877893;28;95544;-75
2022/03/04 16:59:15;;;;;;;16.38;8.00;;;6.10;75.80;;;;;;4880163;28;94467;-77
2022/03/04 17:01:41;;;;;;;15.68;7.90;;;5.90;75.80;;;;;;4890574;28;95915;-76
2022/03/04 17:04:06;;;;;;;15.60;7.35;;;5.80;75.50;;;;;;4890003;28;95588;-76
2022/03/04 17:06:32;;;;;;;15.13;7.72;;;5.70;75.90;;;;;;4886163;28;95382;-76
2022/03/04 17:08:58;;;;;;;13.13;8.05;;;5.40;77.50;;;;;;4871656;28;94715;-75
2022/03/04 17:11:23;;;;;;;15.48;8.50;;;5.20;78.20;;;;;;4891268;28;94539;-76
2022/03/04 17:13:49;;;;;;;16.23;10.50;;;5.10;80.20;;;;;;4888847;28;95297;-75
2022/03/04 17:16:18;;;;;;;16.10;10.27;;;5.00;78.80;;;;;;4888537;28;94530;-76
2022/03/04 17:18:44;;;;;;;14.32;7.82;;;5.00;79.60;;;;;;4885463;28;94651;-74
2022/03/04 17:21:09;;;;;;;16.20;10.05;;;4.90;80.20;;;;;;4884099;28;96696;-77
2022/03/04 17:23:35;;;;;;;13.40;7.68;;;4.80;80.80;;;;;;4874443;28;98007;-80
2022/03/04 17:26:01;;;;;;;14.88;8.10;;;4.60;80.80;;;;;;4894727;28;94671;-77
2022/03/04 17:28:26;;;;;;;14.57;7.60;;;4.60;80.70;;;;;;4902198;28;94633;-78
2022/03/04 17:30:52;;;;;;;15.35;8.38;;;4.50;82.40;;;;;;4896905;28;96158;-76
2022/03/04 17:33:18;;;;;;;15.48;7.43;;;4.50;81.70;;;;;;4899665;28;94751;-76
2022/03/04 17:35:44;;;;;;;14.98;7.85;;;4.40;82.90;;;;;;4898762;28;94486;-76
2022/03/04 17:38:11;;;;;;;14.27;7.85;;;4.20;84.00;;;;;;4885870;28;93767;-78
2022/03/04 17:40:36;;;;;;;16.23;7.95;;;4.00;85.60;;;;;;4899001;28;94515;-77